This is the latest recevied weather packets stored in our database for station/object LRTM. If no packets are shown the sender has not sent any weather packets the latest 10 day(s).
| Time | Temp. | Humidity | Pressure | Rain* | Wind** | Luminosity | Snow |
|---|---|---|---|---|---|---|---|
| 1777917807 | 16.11° C | 45% | 1015 hPa | - | - | - | - |
| 1777916906 | 20° C | 35% | 1015 hPa | - | - | - | - |
| 1777916007 | 20° C | 35% | 1015 hPa | - | - | - | - |
| 1777915106 | 22.22° C | 29% | 1015 hPa | - | - | - | - |
| 1777914206 | 22.22° C | 29% | 1015 hPa | - | - | - | - |
| 1777913307 | 22.78° C | 27% | 1015 hPa | - | - | - | - |
| 1777912421 | 22.78° C | 27% | 1015 hPa | - | - | - | - |
| 1777911515 | 23.89° C | 25% | 1014 hPa | - | - | - | - |
| 1777910607 | 23.89° C | 25% | 1014 hPa | - | - | - | - |
| 1777909706 | 23.89° C | 25% | 1015 hPa | - | - | - | - |
| 1777908806 | 23.89° C | 25% | 1015 hPa | - | - | - | - |
| 1777907907 | 23.89° C | 25% | 1015 hPa | - | - | - | - |
| 1777907006 | 23.89° C | 25% | 1015 hPa | - | - | - | - |
| 1777906106 | 25° C | 24% | 1015 hPa | - | - | - | - |
| 1777905207 | 25° C | 24% | 1015 hPa | - | - | - | - |
| 1777904371 | 25° C | 24% | 1015 hPa | - | - | - | - |
| 1777903407 | 25° C | 24% | 1015 hPa | - | - | - | - |
| 1777902506 | 25° C | 24% | 1015 hPa | - | - | - | - |
| 1777901607 | 25° C | 24% | 1015 hPa | - | - | - | - |
| 1777900706 | 25° C | 24% | 1015 hPa | - | - | - | - |
| 1777899806 | 25° C | 24% | 1015 hPa | - | - | - | - |
| 1777898907 | 25° C | 24% | 1016 hPa | - | - | - | - |
| 1777898007 | 25° C | 24% | 1016 hPa | - | - | - | - |
| 1777897106 | 23.89° C | 25% | 1016 hPa | - | - | - | - |
| 1777896206 | 23.89° C | 25% | 1016 hPa | - | - | - | - |
* Rain since midnight (hover to see other rain measurements)
** Current wind speed in m/s (hover to see current wind gust speed)